createdAt,value
2022-08-10T00:03:32.883Z,15.97
2022-08-10T00:05:59.787Z,18.42
2022-08-10T00:08:27.104Z,17.50
2022-08-10T00:10:56.156Z,18.85
2022-08-10T00:13:25.400Z,19.25
2022-08-10T00:16:06.500Z,19.35
2022-08-10T00:18:35.490Z,17.05
2022-08-10T00:21:08.228Z,23.63
2022-08-10T00:23:37.008Z,19.40
2022-08-10T00:26:05.737Z,18.77
2022-08-10T00:28:33.297Z,21.85
2022-08-10T00:31:00.434Z,17.60
2022-08-10T00:33:27.522Z,19.70
2022-08-10T00:35:54.564Z,20.88
2022-08-10T00:38:21.562Z,21.40
2022-08-10T00:40:48.613Z,20.90
2022-08-10T00:43:15.740Z,23.55
2022-08-10T00:45:59.114Z,23.00
2022-08-10T00:48:31.173Z,25.63
2022-08-10T00:50:59.712Z,23.08
2022-08-10T00:53:27.830Z,20.85
2022-08-10T00:57:12.634Z,23.23
2022-08-10T00:58:43.304Z,21.20
2022-08-10T01:02:08.566Z,23.70
2022-08-10T01:04:40.122Z,22.30
2022-08-10T01:10:22.352Z,19.63
2022-08-10T01:12:56.846Z,20.77
2022-08-10T01:15:36.416Z,26.10
2022-08-10T01:18:37.813Z,20.33
2022-08-10T01:21:23.794Z,16.77
2022-08-10T01:24:19.998Z,18.67
2022-08-10T01:27:27.463Z,20.33
2022-08-10T01:30:10.846Z,20.83
2022-08-10T01:32:52.475Z,19.60
2022-08-10T01:35:40.475Z,18.45
2022-08-10T01:38:12.635Z,18.38
2022-08-10T01:41:02.295Z,17.48
2022-08-10T01:43:31.944Z,18.35
2022-08-10T01:46:03.122Z,14.85
2022-08-10T01:48:38.627Z,17.83
2022-08-10T01:51:27.963Z,19.00
2022-08-10T01:54:00.603Z,18.27
2022-08-10T01:56:30.962Z,17.75
2022-08-10T01:59:01.642Z,17.63
2022-08-10T02:01:38.587Z,16.65
2022-08-10T02:04:09.699Z,16.75
2022-08-10T02:06:44.627Z,18.75
2022-08-10T02:09:18.614Z,16.58
2022-08-10T02:12:06.212Z,17.77
2022-08-10T02:14:36.602Z,20.30
2022-08-10T02:17:08.085Z,17.83
2022-08-10T02:19:38.762Z,21.20
2022-08-10T02:22:36.154Z,17.80
2022-08-10T02:24:57.872Z,19.42
2022-08-10T02:27:27.122Z,17.13
2022-08-10T02:29:55.663Z,19.27
2022-08-10T02:32:36.229Z,19.67
2022-08-10T02:35:08.261Z,16.63
2022-08-10T02:42:18.086Z,21.50
2022-08-10T02:45:23.253Z,20.00
2022-08-10T02:46:03.612Z,23.77
2022-08-10T02:48:44.914Z,23.35
2022-08-10T02:51:17.474Z,21.77
2022-08-10T02:53:56.188Z,18.73
2022-08-10T02:56:36.252Z,20.48
2022-08-10T02:59:16.355Z,23.08
2022-08-10T03:01:48.952Z,24.92
2022-08-10T03:04:54.560Z,22.42
2022-08-10T03:07:13.522Z,23.75
2022-08-10T03:09:41.865Z,26.52
2022-08-10T03:12:34.856Z,27.38
2022-08-10T03:15:00.999Z,27.25
2022-08-10T03:17:30.072Z,24.45
2022-08-10T03:20:33.909Z,25.95
2022-08-10T03:22:46.492Z,25.50
2022-08-10T03:25:14.531Z,29.08
2022-08-10T03:27:43.578Z,27.70
2022-08-10T03:30:29.545Z,24.52
2022-08-10T03:32:59.394Z,25.88
2022-08-10T03:35:27.379Z,30.05
2022-08-10T03:37:59.076Z,27.33
2022-08-10T03:40:44.805Z,27.20
2022-08-10T03:43:17.934Z,29.45
2022-08-10T03:45:54.777Z,25.20
2022-08-10T03:48:42.508Z,30.20
2022-08-10T03:51:13.922Z,28.73
2022-08-10T03:54:03.228Z,28.48
2022-08-10T03:56:33.157Z,30.75
2022-08-10T03:59:01.562Z,28.90
2022-08-10T04:02:46.666Z,30.38
2022-08-10T04:04:22.793Z,30.90
2022-08-10T04:06:54.355Z,36.75
2022-08-10T04:09:24.372Z,27.33
2022-08-10T04:11:51.411Z,31.98
2022-08-10T04:14:38.285Z,28.38
2022-08-10T04:17:05.337Z,30.77
2022-08-10T04:19:43.327Z,31.83
2022-08-10T04:22:24.445Z,45.92
2022-08-10T04:24:57.154Z,30.00
2022-08-10T04:27:24.066Z,32.25
2022-08-10T04:29:51.818Z,28.38
2022-08-10T04:32:21.382Z,30.02
2022-08-10T04:34:49.531Z,33.55
2022-08-10T04:37:19.993Z,31.52
2022-08-10T04:39:47.453Z,30.17
2022-08-10T04:42:14.810Z,29.80
2022-08-10T04:44:43.461Z,30.33
2022-08-10T04:47:10.332Z,32.20
2022-08-10T04:49:56.591Z,32.75
2022-08-10T04:52:25.076Z,32.28
2022-08-10T04:54:52.431Z,34.65
2022-08-10T04:57:19.871Z,31.40
2022-08-10T04:59:46.896Z,29.92
2022-08-10T05:02:30.798Z,27.83
2022-08-10T05:04:59.520Z,34.53
2022-08-10T05:07:26.901Z,31.70
2022-08-10T05:10:04.953Z,34.67
2022-08-10T05:12:36.316Z,30.23
2022-08-10T05:15:12.390Z,32.75
2022-08-10T05:17:40.759Z,30.23
2022-08-10T05:20:10.094Z,32.45
2022-08-10T05:22:39.849Z,34.30
2022-08-10T05:25:12.996Z,38.08
2022-08-10T05:27:41.369Z,33.83
2022-08-10T05:30:10.077Z,34.78
2022-08-10T05:32:58.634Z,37.17
2022-08-10T05:35:25.743Z,33.67
2022-08-10T05:38:10.375Z,36.30
2022-08-10T05:40:46.057Z,35.28
2022-08-10T05:43:14.692Z,30.80
2022-08-10T05:46:18.284Z,34.65
2022-08-10T05:51:20.410Z,35.72
2022-08-10T05:54:01.397Z,33.33
2022-08-10T05:56:54.936Z,33.35
2022-08-10T06:00:29.592Z,32.72
2022-08-10T06:02:32.489Z,33.90
2022-08-10T06:04:58.835Z,31.23
2022-08-10T06:07:30.074Z,40.58
2022-08-10T06:10:00.215Z,30.75
2022-08-10T06:12:30.640Z,33.25
2022-08-10T06:15:06.000Z,31.10
2022-08-10T06:17:37.737Z,30.83
2022-08-10T06:20:05.324Z,29.35
2022-08-10T06:22:33.373Z,34.08
2022-08-10T06:25:32.340Z,35.65
2022-08-10T06:27:51.077Z,33.03
2022-08-10T06:30:20.552Z,31.23
2022-08-10T06:32:54.283Z,32.40
2022-08-10T06:35:23.204Z,29.10
2022-08-10T06:37:52.333Z,35.20
2022-08-10T06:40:20.768Z,35.67
2022-08-10T06:42:50.310Z,34.53
2022-08-10T06:45:21.833Z,34.88
2022-08-10T06:47:57.139Z,32.33
2022-08-10T06:50:44.961Z,32.67
2022-08-10T06:53:53.787Z,34.13
2022-08-10T06:56:19.576Z,33.97
2022-08-10T06:59:21.863Z,38.28
2022-08-10T07:02:03.986Z,35.30
2022-08-10T07:04:52.878Z,37.95
2022-08-10T07:07:22.821Z,32.08
2022-08-10T07:09:51.342Z,34.63
2022-08-10T07:12:21.599Z,30.02
2022-08-10T07:14:51.431Z,30.90
2022-08-10T07:17:22.613Z,27.10
2022-08-10T07:19:52.852Z,30.70
2022-08-10T07:23:27.413Z,29.55
2022-08-10T07:25:15.425Z,25.58
2022-08-10T07:28:00.215Z,29.60
2022-08-10T07:30:33.105Z,23.17
2022-08-10T07:33:02.013Z,27.20
2022-08-10T07:35:37.067Z,19.80
2022-08-10T07:38:19.172Z,20.90
2022-08-10T07:40:48.846Z,18.40
2022-08-10T07:43:17.969Z,20.50
2022-08-10T07:45:45.812Z,17.92
2022-08-10T07:48:17.063Z,17.33
2022-08-10T07:50:46.604Z,19.35
2022-08-10T07:53:22.089Z,19.65
2022-08-10T07:56:04.296Z,15.27
2022-08-10T07:58:51.791Z,19.50
2022-08-10T08:01:24.405Z,13.55
2022-08-10T08:04:11.022Z,15.38
2022-08-10T08:06:42.060Z,15.60
2022-08-10T08:09:11.125Z,14.90
2022-08-10T08:11:43.687Z,12.88
2022-08-10T08:14:12.118Z,13.05
2022-08-10T08:16:47.117Z,14.23
2022-08-10T08:19:37.145Z,15.50
2022-08-10T08:24:09.791Z,16.60
2022-08-10T08:24:52.681Z,16.25
2022-08-10T08:27:23.210Z,12.82
2022-08-10T08:29:52.349Z,12.85
2022-08-10T08:32:23.699Z,12.35
2022-08-10T08:34:56.591Z,15.55
2022-08-10T08:38:29.977Z,13.93
2022-08-10T08:40:26.760Z,10.30
2022-08-10T08:43:12.242Z,13.30
2022-08-10T08:46:16.449Z,12.60
2022-08-10T08:50:04.987Z,14.57
2022-08-10T08:52:19.264Z,12.32
2022-08-10T08:55:56.071Z,12.38
2022-08-10T08:58:34.459Z,12.35
2022-08-10T09:01:41.192Z,12.50
2022-08-10T09:04:40.759Z,14.38
2022-08-10T09:08:00.465Z,12.57
2022-08-10T09:10:33.011Z,10.15
2022-08-10T09:13:27.396Z,11.02
2022-08-10T09:16:03.729Z,14.32
2022-08-10T09:18:52.747Z,12.68
2022-08-10T09:21:43.406Z,11.57
2022-08-10T09:24:46.031Z,10.25
2022-08-10T09:27:23.969Z,12.63
2022-08-10T09:30:00.889Z,11.52
2022-08-10T09:36:13.759Z,9.98
2022-08-10T09:36:23.689Z,10.15
2022-08-10T09:39:09.899Z,11.77
2022-08-10T09:44:58.094Z,8.63
2022-08-10T09:48:01.690Z,5.63
2022-08-10T09:51:34.574Z,7.15
2022-08-10T09:54:00.509Z,6.55
2022-08-10T09:56:41.318Z,8.25
2022-08-10T10:00:01.332Z,5.80
2022-08-10T10:02:58.892Z,6.22
2022-08-10T10:05:50.285Z,5.20
2022-08-10T10:08:49.213Z,8.43
2022-08-10T10:11:35.495Z,7.60
2022-08-10T10:14:35.401Z,7.03
2022-08-10T10:17:16.948Z,3.88
2022-08-10T10:19:49.754Z,5.35
2022-08-10T10:22:38.619Z,5.85
2022-08-10T10:25:19.634Z,6.97
2022-08-10T10:28:21.395Z,5.00
2022-08-10T10:31:06.694Z,7.78
2022-08-10T10:34:00.915Z,4.03
2022-08-10T10:36:29.815Z,3.47
2022-08-10T10:39:00.333Z,3.85
2022-08-10T10:41:27.239Z,3.22
2022-08-10T10:44:41.570Z,3.80
2022-08-10T10:47:30.120Z,5.53
2022-08-10T10:50:02.825Z,3.95
2022-08-10T10:53:07.275Z,4.20
2022-08-10T10:56:14.236Z,3.90
2022-08-10T10:59:54.344Z,3.72
2022-08-10T11:02:34.714Z,5.78
2022-08-10T11:05:26.465Z,6.10
2022-08-10T11:08:09.528Z,6.25
2022-08-10T11:10:52.693Z,5.28
2022-08-10T11:14:25.629Z,4.47
2022-08-10T11:16:30.110Z,4.05
2022-08-10T11:19:09.438Z,5.47
2022-08-10T11:21:54.580Z,7.65
2022-08-10T11:24:50.451Z,6.38
2022-08-10T11:27:49.086Z,4.20
2022-08-10T11:30:20.970Z,3.45
2022-08-10T11:33:32.678Z,6.47
2022-08-10T11:36:19.567Z,5.75
2022-08-10T11:39:15.014Z,8.83
2022-08-10T11:42:10.367Z,6.95
2022-08-10T11:44:55.507Z,7.13
2022-08-10T11:47:43.178Z,10.57
2022-08-10T11:50:42.618Z,4.68
2022-08-10T11:53:15.869Z,6.90
2022-08-10T11:55:54.828Z,3.70
2022-08-10T11:58:47.008Z,6.00
2022-08-10T12:01:18.316Z,5.53
2022-08-10T12:03:53.447Z,5.40
2022-08-10T12:06:54.066Z,3.97
2022-08-10T12:10:06.059Z,9.48
2022-08-10T12:12:09.151Z,9.68
2022-08-10T12:14:49.233Z,4.68
2022-08-10T12:17:29.513Z,3.10
2022-08-10T12:20:07.174Z,6.47
2022-08-10T12:23:06.104Z,5.68
2022-08-10T12:25:55.875Z,6.10
2022-08-10T12:28:51.309Z,3.60
2022-08-10T12:31:27.933Z,3.13
2022-08-10T12:34:28.804Z,5.28
2022-08-10T12:37:07.987Z,6.40
2022-08-10T12:40:33.894Z,4.93
2022-08-10T12:44:05.614Z,3.17
2022-08-10T12:46:12.757Z,3.22
2022-08-10T12:48:54.773Z,3.13
2022-08-10T12:51:29.065Z,5.57
2022-08-10T12:54:07.215Z,4.45
2022-08-10T12:56:40.033Z,3.60
2022-08-10T12:59:11.268Z,3.63
2022-08-10T13:02:06.162Z,4.45
2022-08-10T13:04:37.539Z,4.95
2022-08-10T13:07:06.191Z,2.17
2022-08-10T13:09:34.596Z,5.88
2022-08-10T13:12:38.989Z,9.27
2022-08-10T13:15:49.282Z,3.88
2022-08-10T13:18:23.208Z,7.00
2022-08-10T13:20:56.546Z,6.50
2022-08-10T13:23:29.402Z,7.57
2022-08-10T13:26:03.232Z,2.63
2022-08-10T13:28:45.992Z,4.07
2022-08-10T13:32:03.897Z,9.95
2022-08-10T13:34:42.924Z,2.10
2022-08-10T13:37:09.883Z,3.05
2022-08-10T13:39:58.928Z,3.40
2022-08-10T13:42:35.773Z,3.38
2022-08-10T13:45:16.804Z,4.50
2022-08-10T13:47:50.342Z,5.03
2022-08-10T13:50:33.449Z,3.17
2022-08-10T13:53:09.952Z,4.25
2022-08-10T13:55:56.425Z,4.97
2022-08-10T13:58:29.499Z,8.90
2022-08-10T14:01:01.206Z,4.40
2022-08-10T14:03:34.846Z,2.90
2022-08-10T14:06:04.604Z,5.50
2022-08-10T14:08:32.906Z,4.63
2022-08-10T14:11:10.936Z,5.03
2022-08-10T14:14:02.053Z,6.43
2022-08-10T14:16:31.151Z,2.95
2022-08-10T14:19:05.656Z,7.25
2022-08-10T14:21:39.583Z,8.15
2022-08-10T14:24:07.141Z,4.90
2022-08-10T14:26:34.393Z,5.78
2022-08-10T14:29:20.027Z,7.50
2022-08-10T14:32:01.789Z,8.53
2022-08-10T14:36:16.342Z,4.05
2022-08-10T14:37:37.570Z,3.78
2022-08-10T14:40:14.852Z,3.33
2022-08-10T14:43:05.384Z,3.80
2022-08-10T14:45:36.061Z,3.88
2022-08-10T14:48:17.492Z,2.67
2022-08-10T14:50:55.430Z,2.53
2022-08-10T14:53:27.031Z,4.28
2022-08-10T14:56:03.211Z,2.05
2022-08-10T14:58:59.082Z,4.10
2022-08-10T15:02:00.430Z,3.08
2022-08-10T15:04:26.588Z,8.93
2022-08-10T15:07:00.938Z,6.82
2022-08-10T15:10:00.515Z,4.93
2022-08-10T15:12:41.182Z,7.47
2022-08-10T15:15:16.364Z,2.90
2022-08-10T15:17:55.445Z,5.07
2022-08-10T15:20:30.393Z,6.25
2022-08-10T15:23:30.487Z,6.70
2022-08-10T15:26:11.002Z,2.70
2022-08-10T15:29:23.450Z,4.07
2022-08-10T15:32:08.773Z,3.42
2022-08-10T15:34:54.457Z,3.97
2022-08-10T15:37:40.646Z,4.07
2022-08-10T15:40:23.816Z,5.97
2022-08-10T15:43:05.734Z,3.92
2022-08-10T15:46:05.523Z,5.30
2022-08-10T15:48:48.132Z,8.35
2022-08-10T15:51:53.612Z,5.05
2022-08-10T15:54:33.206Z,1.92
2022-08-10T15:57:09.996Z,2.78
2022-08-10T15:59:58.497Z,6.45
2022-08-10T16:02:29.299Z,3.35
2022-08-10T16:05:05.255Z,1.73
2022-08-10T16:07:49.849Z,2.78
2022-08-10T16:10:28.991Z,5.40
2022-08-10T16:14:00.303Z,4.55
2022-08-10T16:16:02.427Z,4.47
2022-08-10T16:18:37.705Z,3.65
2022-08-10T16:21:14.016Z,4.28
2022-08-10T16:26:50.555Z,4.60
2022-08-10T16:29:23.755Z,6.95
2022-08-10T16:32:05.207Z,5.28
2022-08-10T16:34:35.904Z,2.22
2022-08-10T16:37:08.597Z,2.58
2022-08-10T16:39:58.529Z,6.57
2022-08-10T16:42:31.562Z,6.15
2022-08-10T16:45:04.679Z,6.68
2022-08-10T16:47:37.065Z,6.97
2022-08-10T16:50:07.773Z,6.30
2022-08-10T16:52:36.694Z,3.13
2022-08-10T16:55:48.195Z,5.13
2022-08-10T16:58:08.174Z,4.72
2022-08-10T17:00:36.679Z,5.05
2022-08-10T17:03:22.685Z,3.90
2022-08-10T17:06:12.020Z,5.05
2022-08-10T17:08:48.763Z,3.55
2022-08-10T17:11:18.799Z,4.72
2022-08-10T17:13:46.672Z,7.38
2022-08-10T17:16:20.679Z,4.28
2022-08-10T17:18:48.855Z,11.02
2022-08-10T17:21:29.414Z,5.57
2022-08-10T17:24:03.468Z,6.05
2022-08-10T17:26:35.659Z,10.05
2022-08-10T17:29:50.521Z,7.95
2022-08-10T17:32:06.054Z,7.32
2022-08-10T17:34:46.619Z,8.98
2022-08-10T17:37:20.954Z,6.85
2022-08-10T17:39:56.725Z,7.10
2022-08-10T17:42:28.488Z,14.98
2022-08-10T17:44:57.034Z,6.75
2022-08-10T17:47:28.122Z,5.18
2022-08-10T17:50:00.786Z,10.18
2022-08-10T17:52:33.164Z,5.45
2022-08-10T17:55:05.186Z,5.20
2022-08-10T17:57:39.058Z,7.15
2022-08-10T18:00:16.513Z,5.20
2022-08-10T18:02:49.093Z,7.15
2022-08-10T18:05:19.285Z,7.05
2022-08-10T18:07:52.084Z,6.88
2022-08-10T18:10:22.524Z,6.63
2022-08-10T18:12:55.206Z,5.72
2022-08-10T18:15:26.514Z,3.58
2022-08-10T18:18:03.217Z,4.75
2022-08-10T18:20:37.888Z,6.78
2022-08-10T18:23:08.373Z,8.43
2022-08-10T18:25:44.729Z,3.78
2022-08-10T18:30:48.338Z,7.75
2022-08-10T18:33:20.239Z,11.98
2022-08-10T18:35:53.722Z,5.78
2022-08-10T18:38:23.356Z,5.82
2022-08-10T18:41:16.653Z,5.65
2022-08-10T18:44:11.897Z,8.65
2022-08-10T18:46:56.103Z,6.57
2022-08-10T18:50:00.686Z,6.57
2022-08-10T18:52:49.663Z,7.38
2022-08-10T18:55:39.810Z,6.05
2022-08-10T18:58:59.566Z,8.75
2022-08-10T19:02:13.932Z,6.43
2022-08-10T19:05:31.504Z,4.30
2022-08-10T19:11:06.963Z,5.72
2022-08-10T19:13:54.261Z,6.47
2022-08-10T19:16:42.703Z,5.32
2022-08-10T19:19:46.549Z,6.15
2022-08-10T19:22:31.029Z,3.92
2022-08-10T19:25:06.969Z,4.93
2022-08-10T19:28:07.691Z,7.13
2022-08-10T19:30:58.052Z,6.22
2022-08-10T19:33:45.771Z,12.50
2022-08-10T19:36:21.873Z,5.25
2022-08-10T19:39:13.326Z,6.63
2022-08-10T19:42:11.813Z,6.88
2022-08-10T19:44:55.741Z,4.75
2022-08-10T19:47:53.022Z,6.25
2022-08-10T19:50:30.452Z,9.15
2022-08-10T19:53:08.191Z,4.97
2022-08-10T19:55:49.970Z,5.43
2022-08-10T19:58:22.213Z,5.20
2022-08-10T20:00:59.199Z,5.97
2022-08-10T20:03:37.614Z,4.70
2022-08-10T20:06:26.016Z,5.57
2022-08-10T20:09:39.744Z,7.13
2022-08-10T20:12:10.706Z,6.57
2022-08-10T20:14:49.933Z,7.07
2022-08-10T20:17:28.091Z,5.88
2022-08-10T20:20:15.380Z,12.90
2022-08-10T20:23:00.500Z,12.68
2022-08-10T20:25:32.457Z,8.75
2022-08-10T20:28:11.304Z,9.18
2022-08-10T20:30:46.787Z,12.07
2022-08-10T20:33:58.624Z,12.82
2022-08-10T20:36:33.758Z,10.95
2022-08-10T20:39:28.778Z,9.35
2022-08-10T20:42:05.105Z,12.75
2022-08-10T20:45:02.231Z,7.65
2022-08-10T20:47:52.315Z,12.85
2022-08-10T20:50:36.563Z,9.57
2022-08-10T20:53:16.811Z,9.77
2022-08-10T20:56:24.581Z,7.35
2022-08-10T20:58:54.421Z,8.60
2022-08-10T21:02:01.497Z,5.40
2022-08-10T21:04:38.040Z,4.15
2022-08-10T21:07:28.143Z,7.40
2022-08-10T21:10:04.101Z,3.95
2022-08-10T21:13:18.053Z,9.05
2022-08-10T21:16:03.594Z,8.63
2022-08-10T21:18:56.164Z,8.20
2022-08-10T21:21:56.534Z,3.97
2022-08-10T21:24:33.552Z,7.65
2022-08-10T21:27:27.503Z,8.23
2022-08-10T21:30:11.202Z,4.55
2022-08-10T21:33:03.182Z,14.10
2022-08-10T21:35:40.746Z,4.35
2022-08-10T21:38:29.894Z,10.30
2022-08-10T21:41:19.062Z,7.40
2022-08-10T21:44:20.913Z,8.68
2022-08-10T21:50:53.029Z,10.05
2022-08-10T21:53:54.102Z,16.38
2022-08-10T21:56:50.592Z,7.22
2022-08-10T21:59:42.982Z,6.90
2022-08-10T22:02:33.822Z,8.10
2022-08-10T22:05:21.914Z,6.40
2022-08-10T22:08:15.021Z,9.93
2022-08-10T22:11:08.796Z,12.27
2022-08-10T22:14:04.956Z,6.95
2022-08-10T22:17:59.381Z,6.63
2022-08-10T22:20:27.169Z,4.45
2022-08-10T22:23:31.143Z,6.82
2022-08-10T22:26:41.193Z,6.32
2022-08-10T22:29:42.741Z,7.72
2022-08-10T22:31:27.040Z,13.55
2022-08-10T22:32:48.763Z,4.07
2022-08-10T22:35:36.961Z,5.72
2022-08-10T22:38:50.952Z,6.53
2022-08-10T22:42:13.674Z,10.82
2022-08-10T22:45:02.670Z,6.70
2022-08-10T22:47:51.382Z,5.72
2022-08-10T22:50:28.232Z,7.20
2022-08-10T22:53:06.024Z,6.03
2022-08-10T22:55:57.705Z,8.15
2022-08-10T22:58:40.243Z,12.13
2022-08-10T23:02:07.937Z,8.95
2022-08-10T23:04:35.807Z,7.25
2022-08-10T23:07:21.026Z,7.47
2022-08-10T23:10:12.986Z,6.40
2022-08-10T23:12:55.566Z,5.15
2022-08-10T23:15:55.126Z,3.20
2022-08-10T23:19:08.906Z,7.57
2022-08-10T23:22:03.903Z,4.43
2022-08-10T23:24:55.185Z,4.10
2022-08-10T23:27:38.289Z,6.35
2022-08-10T23:30:17.037Z,6.20
2022-08-10T23:32:49.275Z,4.43
2022-08-10T23:36:28.115Z,4.88
2022-08-10T23:38:15.034Z,6.40
2022-08-10T23:40:47.622Z,5.20
2022-08-10T23:43:17.795Z,4.45
2022-08-10T23:45:53.623Z,3.45
2022-08-10T23:48:25.616Z,6.68
2022-08-10T23:51:02.755Z,2.85
2022-08-10T23:53:35.532Z,5.25
2022-08-10T23:56:09.034Z,7.38
2022-08-10T23:58:42.236Z,6.57
